sensor_id;sensor_type;location;lat;lon;timestamp;pressure;altitude;pressure_sealevel;temperature;humidity
39949;BME280;29070;48.102;-1.652;2023-05-07T00:03:50;101245.75;;;15.88;80.27
39949;BME280;29070;48.102;-1.652;2023-05-07T00:08:51;101249.84;;;15.84;80.36
39949;BME280;29070;48.102;-1.652;2023-05-07T00:13:51;101242.13;;;15.82;80.40
39949;BME280;29070;48.102;-1.652;2023-05-07T00:18:52;101249.47;;;15.80;80.55
39949;BME280;29070;48.102;-1.652;2023-05-07T00:23:53;101241.31;;;15.81;80.44
39949;BME280;29070;48.102;-1.652;2023-05-07T00:28:54;101243.38;;;15.79;80.49
39949;BME280;29070;48.102;-1.652;2023-05-07T00:33:54;101246.84;;;15.80;80.48
39949;BME280;29070;48.102;-1.652;2023-05-07T00:38:54;101245.00;;;15.74;80.60
39949;BME280;29070;48.102;-1.652;2023-05-07T00:43:55;101250.28;;;15.74;80.62
39949;BME280;29070;48.102;-1.652;2023-05-07T00:48:56;101241.38;;;15.75;80.79
39949;BME280;29070;48.102;-1.652;2023-05-07T00:53:57;101246.25;;;15.71;80.80
39949;BME280;29070;48.102;-1.652;2023-05-07T00:58:57;101249.13;;;15.70;80.76
39949;BME280;29070;48.102;-1.652;2023-05-07T01:03:57;101242.25;;;15.62;80.75
39949;BME280;29070;48.102;-1.652;2023-05-07T01:08:58;101237.78;;;15.62;80.55
39949;BME280;29070;48.102;-1.652;2023-05-07T01:13:59;101241.50;;;15.55;80.57
39949;BME280;29070;48.102;-1.652;2023-05-07T01:19:00;101233.19;;;15.51;80.52
39949;BME280;29070;48.102;-1.652;2023-05-07T01:24:01;101237.88;;;15.49;80.46
39949;BME280;29070;48.102;-1.652;2023-05-07T01:29:01;101243.00;;;15.44;80.43
39949;BME280;29070;48.102;-1.652;2023-05-07T01:34:03;101231.84;;;15.42;80.71
39949;BME280;29070;48.102;-1.652;2023-05-07T01:39:06;101232.25;;;15.39;80.63
39949;BME280;29070;48.102;-1.652;2023-05-07T01:44:07;101237.75;;;15.37;80.93
39949;BME280;29070;48.102;-1.652;2023-05-07T01:49:08;101240.44;;;15.31;80.88
39949;BME280;29070;48.102;-1.652;2023-05-07T01:54:09;101234.75;;;15.27;81.00
39949;BME280;29070;48.102;-1.652;2023-05-07T01:59:09;101244.16;;;15.23;80.93
39949;BME280;29070;48.102;-1.652;2023-05-07T02:04:10;101251.69;;;15.19;80.55
39949;BME280;29070;48.102;-1.652;2023-05-07T02:09:11;101242.56;;;15.15;80.80
39949;BME280;29070;48.102;-1.652;2023-05-07T02:14:11;101246.66;;;15.11;81.00
39949;BME280;29070;48.102;-1.652;2023-05-07T02:19:12;101252.19;;;15.03;81.01
39949;BME280;29070;48.102;-1.652;2023-05-07T02:24:12;101257.91;;;15.00;81.20
39949;BME280;29070;48.102;-1.652;2023-05-07T02:29:12;101256.72;;;14.96;81.15
39949;BME280;29070;48.102;-1.652;2023-05-07T02:34:13;101261.00;;;14.90;80.93
39949;BME280;29070;48.102;-1.652;2023-05-07T02:39:13;101274.84;;;14.85;80.86
39949;BME280;29070;48.102;-1.652;2023-05-07T02:44:15;101280.94;;;14.86;81.21
39949;BME280;29070;48.102;-1.652;2023-05-07T02:49:15;101281.31;;;14.90;81.43
39949;BME280;29070;48.102;-1.652;2023-05-07T02:54:16;101282.53;;;14.94;81.57
39949;BME280;29070;48.102;-1.652;2023-05-07T02:59:17;101288.63;;;14.94;81.87
39949;BME280;29070;48.102;-1.652;2023-05-07T03:04:18;101286.78;;;14.95;82.07
39949;BME280;29070;48.102;-1.652;2023-05-07T03:09:18;101288.63;;;15.01;82.20
39949;BME280;29070;48.102;-1.652;2023-05-07T03:14:18;101293.06;;;15.00;82.16
39949;BME280;29070;48.102;-1.652;2023-05-07T03:19:19;101292.25;;;15.00;82.28
39949;BME280;29070;48.102;-1.652;2023-05-07T03:24:19;101307.13;;;15.01;82.15
39949;BME280;29070;48.102;-1.652;2023-05-07T03:29:19;101304.47;;;15.01;82.33
39949;BME280;29070;48.102;-1.652;2023-05-07T03:34:20;101301.38;;;15.04;82.37
39949;BME280;29070;48.102;-1.652;2023-05-07T03:39:22;101302.84;;;15.00;82.35
39949;BME280;29070;48.102;-1.652;2023-05-07T03:44:23;101307.72;;;15.03;82.37
39949;BME280;29070;48.102;-1.652;2023-05-07T03:49:23;101309.75;;;15.01;82.32
39949;BME280;29070;48.102;-1.652;2023-05-07T03:54:23;101312.41;;;15.01;82.47
39949;BME280;29070;48.102;-1.652;2023-05-07T03:59:24;101313.41;;;15.00;82.50
39949;BME280;29070;48.102;-1.652;2023-05-07T04:04:24;101320.34;;;15.01;82.87
39949;BME280;29070;48.102;-1.652;2023-05-07T04:09:24;101323.19;;;14.99;82.66
39949;BME280;29070;48.102;-1.652;2023-05-07T04:14:25;101321.56;;;14.98;82.65
39949;BME280;29070;48.102;-1.652;2023-05-07T04:19:25;101330.31;;;14.99;82.73
39949;BME280;29070;48.102;-1.652;2023-05-07T04:24:26;101334.16;;;15.03;82.70
39949;BME280;29070;48.102;-1.652;2023-05-07T04:29:26;101329.88;;;15.02;82.84
39949;BME280;29070;48.102;-1.652;2023-05-07T04:34:27;101324.38;;;15.03;82.90
39949;BME280;29070;48.102;-1.652;2023-05-07T04:39:27;101330.28;;;15.05;83.08
39949;BME280;29070;48.102;-1.652;2023-05-07T04:44:27;101326.81;;;15.05;83.22
39949;BME280;29070;48.102;-1.652;2023-05-07T04:49:28;101330.06;;;15.07;83.23
39949;BME280;29070;48.102;-1.652;2023-05-07T04:54:28;101335.75;;;15.11;83.25
39949;BME280;29070;48.102;-1.652;2023-05-07T04:59:29;101348.75;;;15.12;83.31
39949;BME280;29070;48.102;-1.652;2023-05-07T05:04:29;101342.28;;;15.08;83.51
39949;BME280;29070;48.102;-1.652;2023-05-07T05:09:30;101347.56;;;15.08;83.45
39949;BME280;29070;48.102;-1.652;2023-05-07T05:14:30;101352.41;;;15.11;83.41
39949;BME280;29070;48.102;-1.652;2023-05-07T05:19:30;101357.28;;;15.14;83.70
39949;BME280;29070;48.102;-1.652;2023-05-07T05:24:31;101363.38;;;15.15;83.61
39949;BME280;29070;48.102;-1.652;2023-05-07T05:29:31;101370.31;;;15.16;83.82
39949;BME280;29070;48.102;-1.652;2023-05-07T05:34:32;101367.44;;;15.17;83.90
39949;BME280;29070;48.102;-1.652;2023-05-07T05:39:33;101370.69;;;15.19;83.82
39949;BME280;29070;48.102;-1.652;2023-05-07T05:44:33;101388.19;;;15.20;84.02
39949;BME280;29070;48.102;-1.652;2023-05-07T05:49:34;101393.06;;;15.23;83.90
39949;BME280;29070;48.102;-1.652;2023-05-07T05:54:35;101389.00;;;15.28;83.73
39949;BME280;29070;48.102;-1.652;2023-05-07T05:59:35;101392.22;;;15.30;83.80
39949;BME280;29070;48.102;-1.652;2023-05-07T06:04:35;101406.06;;;15.32;84.12
39949;BME280;29070;48.102;-1.652;2023-05-07T06:09:36;101417.03;;;15.35;84.12
39949;BME280;29070;48.102;-1.652;2023-05-07T06:14:36;101415.75;;;15.44;84.29
39949;BME280;29070;48.102;-1.652;2023-05-07T06:19:36;101423.28;;;15.54;84.18
39949;BME280;29070;48.102;-1.652;2023-05-07T06:24:37;101427.88;;;15.66;84.27
39949;BME280;29070;48.102;-1.652;2023-05-07T06:29:37;101429.50;;;15.67;84.29
39949;BME280;29070;48.102;-1.652;2023-05-07T06:34:38;101426.66;;;15.75;84.15
39949;BME280;29070;48.102;-1.652;2023-05-07T06:39:39;101429.44;;;15.87;84.13
39949;BME280;29070;48.102;-1.652;2023-05-07T06:44:39;101441.59;;;15.94;84.29
39949;BME280;29070;48.102;-1.652;2023-05-07T06:49:39;101447.25;;;16.05;84.34
39949;BME280;29070;48.102;-1.652;2023-05-07T06:54:40;101452.72;;;16.10;84.03
39949;BME280;29070;48.102;-1.652;2023-05-07T06:59:40;101452.94;;;16.08;83.75
39949;BME280;29070;48.102;-1.652;2023-05-07T07:04:40;101459.84;;;16.09;83.66
39949;BME280;29070;48.102;-1.652;2023-05-07T07:09:41;101460.22;;;16.13;84.05
39949;BME280;29070;48.102;-1.652;2023-05-07T07:14:42;101462.63;;;16.21;83.83
39949;BME280;29070;48.102;-1.652;2023-05-07T07:19:42;101479.72;;;16.25;83.83
39949;BME280;29070;48.102;-1.652;2023-05-07T07:24:43;101483.81;;;16.21;83.43
39949;BME280;29070;48.102;-1.652;2023-05-07T07:29:43;101492.41;;;16.16;83.39
39949;BME280;29070;48.102;-1.652;2023-05-07T07:34:43;101499.97;;;16.13;83.27
39949;BME280;29070;48.102;-1.652;2023-05-07T07:39:43;101503.06;;;16.10;83.35
39949;BME280;29070;48.102;-1.652;2023-05-07T07:44:44;101505.06;;;16.08;83.47
39949;BME280;29070;48.102;-1.652;2023-05-07T07:49:44;101512.78;;;16.16;83.55
39949;BME280;29070;48.102;-1.652;2023-05-07T07:54:45;101519.31;;;16.13;83.55
39949;BME280;29070;48.102;-1.652;2023-05-07T07:59:45;101529.94;;;16.07;83.39
39949;BME280;29070;48.102;-1.652;2023-05-07T08:04:45;101524.25;;;16.10;83.58
39949;BME280;29070;48.102;-1.652;2023-05-07T08:09:46;101532.31;;;16.22;83.58
39949;BME280;29070;48.102;-1.652;2023-05-07T08:14:47;101532.25;;;16.35;83.69
39949;BME280;29070;48.102;-1.652;2023-05-07T08:19:47;101536.69;;;16.41;83.72
39949;BME280;29070;48.102;-1.652;2023-05-07T08:24:48;101538.56;;;16.34;83.36
39949;BME280;29070;48.102;-1.652;2023-05-07T08:29:48;101548.31;;;16.40;83.34
39949;BME280;29070;48.102;-1.652;2023-05-07T08:34:49;101545.59;;;16.47;83.17
39949;BME280;29070;48.102;-1.652;2023-05-07T08:39:49;101550.06;;;16.53;82.92
39949;BME280;29070;48.102;-1.652;2023-05-07T08:44:50;101541.47;;;16.57;82.83
39949;BME280;29070;48.102;-1.652;2023-05-07T08:49:53;101543.19;;;16.70;82.83
39949;BME280;29070;48.102;-1.652;2023-05-07T08:54:54;101558.09;;;16.71;82.63
39949;BME280;29070;48.102;-1.652;2023-05-07T08:59:55;101561.91;;;17.07;83.10
39949;BME280;29070;48.102;-1.652;2023-05-07T09:04:55;101565.22;;;17.28;82.94
39949;BME280;29070;48.102;-1.652;2023-05-07T09:09:56;101568.03;;;17.51;82.64
39949;BME280;29070;48.102;-1.652;2023-05-07T09:14:57;101570.69;;;17.51;81.75
39949;BME280;29070;48.102;-1.652;2023-05-07T09:20:05;101567.00;;;17.52;81.30
39949;BME280;29070;48.102;-1.652;2023-05-07T09:25:06;101567.44;;;17.68;81.10
39949;BME280;29070;48.102;-1.652;2023-05-07T09:30:07;101575.84;;;17.65;80.58
39949;BME280;29070;48.102;-1.652;2023-05-07T09:35:17;101572.59;;;17.81;80.37
39949;BME280;29070;48.102;-1.652;2023-05-07T09:40:22;101571.22;;;18.16;80.47
39949;BME280;29070;48.102;-1.652;2023-05-07T09:45:27;101585.56;;;18.26;79.58
39949;BME280;29070;48.102;-1.652;2023-05-07T09:50:35;101591.63;;;18.34;78.72
39949;BME280;29070;48.102;-1.652;2023-05-07T09:55:37;101589.97;;;18.33;78.25
39949;BME280;29070;48.102;-1.652;2023-05-07T10:00:39;101596.66;;;18.23;77.50
39949;BME280;29070;48.102;-1.652;2023-05-07T10:05:40;101595.28;;;18.33;77.54
39949;BME280;29070;48.102;-1.652;2023-05-07T10:10:42;101601.66;;;18.32;76.90
39949;BME280;29070;48.102;-1.652;2023-05-07T10:15:42;101608.00;;;18.31;76.66
39949;BME280;29070;48.102;-1.652;2023-05-07T10:20:45;101611.53;;;18.43;76.34
39949;BME280;29070;48.102;-1.652;2023-05-07T10:25:47;101623.03;;;18.37;75.98
39949;BME280;29070;48.102;-1.652;2023-05-07T10:36:25;101626.69;;;18.24;75.16
39949;BME280;29070;48.102;-1.652;2023-05-07T10:41:26;101639.31;;;18.28;75.34
39949;BME280;29070;48.102;-1.652;2023-05-07T10:46:26;101647.56;;;18.39;75.30
39949;BME280;29070;48.102;-1.652;2023-05-07T10:51:28;101645.06;;;18.44;74.95
39949;BME280;29070;48.102;-1.652;2023-05-07T10:56:29;101655.06;;;18.60;75.20
39949;BME280;29070;48.102;-1.652;2023-05-07T11:02:01;101640.75;;;18.73;74.26
39949;BME280;29070;48.102;-1.652;2023-05-07T11:12:06;101658.31;;;18.93;74.23
39949;BME280;29070;48.102;-1.652;2023-05-07T11:17:07;101652.50;;;18.84;73.78
39949;BME280;29070;48.102;-1.652;2023-05-07T11:27:32;101661.81;;;19.05;73.49
39949;BME280;29070;48.102;-1.652;2023-05-07T11:32:32;101669.22;;;19.15;72.95
39949;BME280;29070;48.102;-1.652;2023-05-07T11:37:33;101671.00;;;19.21;72.78
39949;BME280;29070;48.102;-1.652;2023-05-07T11:42:35;101674.22;;;19.35;72.27
39949;BME280;29070;48.102;-1.652;2023-05-07T11:47:37;101690.22;;;19.47;72.06
39949;BME280;29070;48.102;-1.652;2023-05-07T11:52:37;101679.25;;;19.55;72.08
39949;BME280;29070;48.102;-1.652;2023-05-07T11:57:39;101687.78;;;19.45;70.94
39949;BME280;29070;48.102;-1.652;2023-05-07T12:02:39;101693.53;;;19.07;70.36
39949;BME280;29070;48.102;-1.652;2023-05-07T12:07:39;101703.53;;;18.93;70.64
39949;BME280;29070;48.102;-1.652;2023-05-07T12:12:41;101693.38;;;18.71;70.64
39949;BME280;29070;48.102;-1.652;2023-05-07T12:17:44;101715.88;;;18.68;70.35
39949;BME280;29070;48.102;-1.652;2023-05-07T12:22:45;101704.94;;;18.77;70.57
39949;BME280;29070;48.102;-1.652;2023-05-07T12:27:51;101704.94;;;18.77;70.22
39949;BME280;29070;48.102;-1.652;2023-05-07T12:32:53;101708.28;;;18.91;70.06
39949;BME280;29070;48.102;-1.652;2023-05-07T12:37:57;101713.31;;;19.11;70.35
39949;BME280;29070;48.102;-1.652;2023-05-07T12:42:59;101727.09;;;19.19;70.03
39949;BME280;29070;48.102;-1.652;2023-05-07T12:48:01;101727.47;;;19.23;69.95
39949;BME280;29070;48.102;-1.652;2023-05-07T12:53:04;101727.69;;;19.33;69.39
39949;BME280;29070;48.102;-1.652;2023-05-07T12:58:08;101728.88;;;19.37;69.35
39949;BME280;29070;48.102;-1.652;2023-05-07T13:03:08;101722.41;;;19.69;69.87
39949;BME280;29070;48.102;-1.652;2023-05-07T13:08:09;101715.16;;;19.88;69.18
39949;BME280;29070;48.102;-1.652;2023-05-07T13:13:09;101709.94;;;19.93;68.78
39949;BME280;29070;48.102;-1.652;2023-05-07T13:18:10;101714.78;;;19.96;67.83
39949;BME280;29070;48.102;-1.652;2023-05-07T13:23:11;101712.59;;;19.93;67.70
39949;BME280;29070;48.102;-1.652;2023-05-07T13:28:12;101723.00;;;20.06;67.82
39949;BME280;29070;48.102;-1.652;2023-05-07T13:33:13;101717.59;;;20.42;67.97
39949;BME280;29070;48.102;-1.652;2023-05-07T13:38:13;101727.91;;;20.62;67.04
39949;BME280;29070;48.102;-1.652;2023-05-07T13:43:15;101723.72;;;20.66;66.39
39949;BME280;29070;48.102;-1.652;2023-05-07T13:48:17;101728.72;;;20.50;65.72
39949;BME280;29070;48.102;-1.652;2023-05-07T13:53:21;101723.41;;;20.38;65.34
39949;BME280;29070;48.102;-1.652;2023-05-07T13:58:21;101724.63;;;20.60;65.64
39949;BME280;29070;48.102;-1.652;2023-05-07T14:03:21;101733.19;;;20.73;65.37
39949;BME280;29070;48.102;-1.652;2023-05-07T14:08:22;101730.41;;;20.80;65.23
39949;BME280;29070;48.102;-1.652;2023-05-07T14:13:22;101734.19;;;20.84;65.26
39949;BME280;29070;48.102;-1.652;2023-05-07T14:18:22;101740.06;;;20.57;64.42
39949;BME280;29070;48.102;-1.652;2023-05-07T14:23:23;101737.16;;;20.59;64.59
39949;BME280;29070;48.102;-1.652;2023-05-07T14:28:26;101750.16;;;20.55;64.27
39949;BME280;29070;48.102;-1.652;2023-05-07T14:33:26;101750.84;;;20.51;63.87
39949;BME280;29070;48.102;-1.652;2023-05-07T14:38:27;101760.28;;;20.42;63.69
39949;BME280;29070;48.102;-1.652;2023-05-07T14:43:27;101749.63;;;20.42;63.40
39949;BME280;29070;48.102;-1.652;2023-05-07T14:48:27;101758.97;;;20.56;63.50
39949;BME280;29070;48.102;-1.652;2023-05-07T14:53:28;101756.19;;;20.63;63.13
39949;BME280;29070;48.102;-1.652;2023-05-07T14:58:28;101757.31;;;20.79;62.89
39949;BME280;29070;48.102;-1.652;2023-05-07T15:03:29;101757.81;;;20.92;62.52
39949;BME280;29070;48.102;-1.652;2023-05-07T15:08:30;101746.44;;;20.97;62.21
39949;BME280;29070;48.102;-1.652;2023-05-07T15:13:30;101745.66;;;21.13;62.29
39949;BME280;29070;48.102;-1.652;2023-05-07T15:18:30;101738.81;;;21.18;61.53
39949;BME280;29070;48.102;-1.652;2023-05-07T15:23:31;101736.47;;;21.21;61.59
39949;BME280;29070;48.102;-1.652;2023-05-07T15:28:31;101746.34;;;21.38;61.00
39949;BME280;29070;48.102;-1.652;2023-05-07T15:33:32;101746.63;;;21.24;60.65
39949;BME280;29070;48.102;-1.652;2023-05-07T15:38:33;101747.28;;;21.14;60.42
39949;BME280;29070;48.102;-1.652;2023-05-07T15:43:43;101751.31;;;21.00;59.99
39949;BME280;29070;48.102;-1.652;2023-05-07T15:48:44;101754.06;;;21.22;60.41
39949;BME280;29070;48.102;-1.652;2023-05-07T15:53:45;101760.72;;;21.20;60.16
39949;BME280;29070;48.102;-1.652;2023-05-07T15:58:45;101761.84;;;21.24;60.22
39949;BME280;29070;48.102;-1.652;2023-05-07T16:03:46;101767.44;;;21.22;59.84
39949;BME280;29070;48.102;-1.652;2023-05-07T16:08:46;101765.06;;;21.09;60.10
39949;BME280;29070;48.102;-1.652;2023-05-07T16:13:47;101756.47;;;21.36;59.73
39949;BME280;29070;48.102;-1.652;2023-05-07T16:18:47;101760.13;;;21.46;59.50
39949;BME280;29070;48.102;-1.652;2023-05-07T16:23:47;101765.75;;;21.33;59.09
39949;BME280;29070;48.102;-1.652;2023-05-07T16:28:49;101772.25;;;21.08;58.87
39949;BME280;29070;48.102;-1.652;2023-05-07T16:33:50;101770.25;;;20.87;59.10
39949;BME280;29070;48.102;-1.652;2023-05-07T16:38:51;101778.22;;;20.70;59.38
39949;BME280;29070;48.102;-1.652;2023-05-07T16:43:51;101784.75;;;20.62;59.38
39949;BME280;29070;48.102;-1.652;2023-05-07T16:48:52;101785.19;;;20.47;59.57
39949;BME280;29070;48.102;-1.652;2023-05-07T16:53:52;101791.72;;;20.28;59.51
39949;BME280;29070;48.102;-1.652;2023-05-07T16:58:53;101797.28;;;20.14;59.80
39949;BME280;29070;48.102;-1.652;2023-05-07T17:03:53;101788.94;;;19.99;59.95
39949;BME280;29070;48.102;-1.652;2023-05-07T17:08:53;101787.00;;;19.94;60.04
39949;BME280;29070;48.102;-1.652;2023-05-07T17:13:54;101770.88;;;20.01;60.04
39949;BME280;29070;48.102;-1.652;2023-05-07T17:18:54;101764.84;;;19.94;59.88
39949;BME280;29070;48.102;-1.652;2023-05-07T17:23:55;101765.19;;;19.86;60.20
39949;BME280;29070;48.102;-1.652;2023-05-07T17:28:55;101759.13;;;19.67;60.14
39949;BME280;29070;48.102;-1.652;2023-05-07T17:33:55;101760.16;;;19.54;60.25
39949;BME280;29070;48.102;-1.652;2023-05-07T17:38:56;101771.47;;;19.37;60.58
39949;BME280;29070;48.102;-1.652;2023-05-07T17:43:56;101777.13;;;19.29;60.78
39949;BME280;29070;48.102;-1.652;2023-05-07T17:48:57;101777.09;;;19.17;60.91
39949;BME280;29070;48.102;-1.652;2023-05-07T17:53:57;101783.31;;;19.11;61.29
39949;BME280;29070;48.102;-1.652;2023-05-07T17:58:57;101781.78;;;19.03;61.48
39949;BME280;29070;48.102;-1.652;2023-05-07T18:03:58;101777.81;;;18.94;61.68
39949;BME280;29070;48.102;-1.652;2023-05-07T18:08:59;101788.66;;;18.74;61.52
39949;BME280;29070;48.102;-1.652;2023-05-07T18:13:59;101794.50;;;18.64;61.91
39949;BME280;29070;48.102;-1.652;2023-05-07T18:19:01;101802.75;;;18.56;62.29
39949;BME280;29070;48.102;-1.652;2023-05-07T18:24:01;101803.34;;;18.40;62.12
39949;BME280;29070;48.102;-1.652;2023-05-07T18:29:01;101809.69;;;18.20;62.28
39949;BME280;29070;48.102;-1.652;2023-05-07T18:34:02;101817.13;;;18.12;62.55
39949;BME280;29070;48.102;-1.652;2023-05-07T18:39:02;101813.19;;;17.96;62.79
39949;BME280;29070;48.102;-1.652;2023-05-07T18:44:03;101813.84;;;17.84;63.13
39949;BME280;29070;48.102;-1.652;2023-05-07T18:49:03;101823.69;;;17.77;63.26
39949;BME280;29070;48.102;-1.652;2023-05-07T18:54:04;101838.47;;;17.66;63.50
39949;BME280;29070;48.102;-1.652;2023-05-07T18:59:04;101842.00;;;17.60;63.68
39949;BME280;29070;48.102;-1.652;2023-05-07T19:04:04;101844.31;;;17.50;64.03
39949;BME280;29070;48.102;-1.652;2023-05-07T19:09:05;101857.25;;;17.33;64.00
39949;BME280;29070;48.102;-1.652;2023-05-07T19:14:05;101867.13;;;17.19;64.14
39949;BME280;29070;48.102;-1.652;2023-05-07T19:19:05;101867.34;;;17.11;64.45
39949;BME280;29070;48.102;-1.652;2023-05-07T19:24:06;101872.13;;;16.95;64.64
39949;BME280;29070;48.102;-1.652;2023-05-07T19:29:07;101872.53;;;16.86;64.87
39949;BME280;29070;48.102;-1.652;2023-05-07T19:34:07;101885.19;;;16.70;65.05
39949;BME280;29070;48.102;-1.652;2023-05-07T19:39:08;101889.69;;;16.63;65.12
39949;BME280;29070;48.102;-1.652;2023-05-07T19:44:08;101892.75;;;16.53;65.40
39949;BME280;29070;48.102;-1.652;2023-05-07T19:49:08;101905.81;;;16.42;65.60
39949;BME280;29070;48.102;-1.652;2023-05-07T19:54:09;101905.63;;;16.30;65.45
39949;BME280;29070;48.102;-1.652;2023-05-07T19:59:09;101916.63;;;16.07;65.21
39949;BME280;29070;48.102;-1.652;2023-05-07T20:04:10;101928.19;;;15.92;65.64
39949;BME280;29070;48.102;-1.652;2023-05-07T20:09:10;101919.81;;;15.82;66.01
39949;BME280;29070;48.102;-1.652;2023-05-07T20:14:11;101932.34;;;15.67;65.84
39949;BME280;29070;48.102;-1.652;2023-05-07T20:19:12;101943.13;;;15.58;66.20
39949;BME280;29070;48.102;-1.652;2023-05-07T20:24:12;101948.78;;;15.49;66.32
39949;BME280;29070;48.102;-1.652;2023-05-07T20:29:12;101953.88;;;15.43;66.44
39949;BME280;29070;48.102;-1.652;2023-05-07T20:34:13;101959.50;;;15.34;66.11
39949;BME280;29070;48.102;-1.652;2023-05-07T20:39:13;101970.88;;;15.28;66.74
39949;BME280;29070;48.102;-1.652;2023-05-07T20:44:15;101980.22;;;15.23;67.04
39949;BME280;29070;48.102;-1.652;2023-05-07T20:49:16;101990.34;;;15.13;67.19
39949;BME280;29070;48.102;-1.652;2023-05-07T20:54:17;101996.38;;;15.07;67.40
39949;BME280;29070;48.102;-1.652;2023-05-07T20:59:17;102000.38;;;14.96;67.79
39949;BME280;29070;48.102;-1.652;2023-05-07T21:04:17;102005.59;;;14.90;67.87
39949;BME280;29070;48.102;-1.652;2023-05-07T21:09:18;101993.16;;;14.83;67.90
39949;BME280;29070;48.102;-1.652;2023-05-07T21:14:19;102002.06;;;14.76;68.28
39949;BME280;29070;48.102;-1.652;2023-05-07T21:19:19;102008.28;;;14.68;68.44
39949;BME280;29070;48.102;-1.652;2023-05-07T21:24:20;101998.94;;;14.65;68.86
39949;BME280;29070;48.102;-1.652;2023-05-07T21:29:20;101999.34;;;14.69;68.91
39949;BME280;29070;48.102;-1.652;2023-05-07T21:34:21;102006.25;;;14.70;69.18
39949;BME280;29070;48.102;-1.652;2023-05-07T21:39:21;102006.66;;;14.67;69.40
39949;BME280;29070;48.102;-1.652;2023-05-07T21:44:21;102004.47;;;14.71;69.08
39949;BME280;29070;48.102;-1.652;2023-05-07T21:49:22;102004.03;;;14.67;69.40
39949;BME280;29070;48.102;-1.652;2023-05-07T21:54:22;101992.00;;;14.64;69.31
39949;BME280;29070;48.102;-1.652;2023-05-07T21:59:22;101978.97;;;14.63;69.32
39949;BME280;29070;48.102;-1.652;2023-05-07T22:04:24;101990.28;;;14.57;69.28
39949;BME280;29070;48.102;-1.652;2023-05-07T22:09:24;101992.22;;;14.48;69.24
39949;BME280;29070;48.102;-1.652;2023-05-07T22:14:25;101995.38;;;14.37;69.34
39949;BME280;29070;48.102;-1.652;2023-05-07T22:19:25;102003.84;;;14.32;69.56
39949;BME280;29070;48.102;-1.652;2023-05-07T22:24:25;101997.31;;;14.28;69.88
39949;BME280;29070;48.102;-1.652;2023-05-07T22:29:26;101994.44;;;14.23;70.06
39949;BME280;29070;48.102;-1.652;2023-05-07T22:34:26;102010.59;;;14.13;70.09
39949;BME280;29070;48.102;-1.652;2023-05-07T22:39:27;102010.50;;;14.06;70.30
39949;BME280;29070;48.102;-1.652;2023-05-07T22:44:30;102009.97;;;13.96;70.34
39949;BME280;29070;48.102;-1.652;2023-05-07T22:49:33;102014.63;;;13.94;70.80
39949;BME280;29070;48.102;-1.652;2023-05-07T22:54:33;102022.19;;;13.97;71.06
39949;BME280;29070;48.102;-1.652;2023-05-07T22:59:34;102005.16;;;14.00;71.28
39949;BME280;29070;48.102;-1.652;2023-05-07T23:04:35;102004.97;;;14.01;71.41
39949;BME280;29070;48.102;-1.652;2023-05-07T23:09:35;102008.59;;;14.00;71.45
39949;BME280;29070;48.102;-1.652;2023-05-07T23:14:35;102022.81;;;13.99;71.24
39949;BME280;29070;48.102;-1.652;2023-05-07T23:19:36;102033.09;;;13.94;71.67
39949;BME280;29070;48.102;-1.652;2023-05-07T23:24:36;102041.28;;;13.99;71.89
39949;BME280;29070;48.102;-1.652;2023-05-07T23:29:36;102040.94;;;14.02;71.92
39949;BME280;29070;48.102;-1.652;2023-05-07T23:34:37;102029.00;;;14.06;72.12
39949;BME280;29070;48.102;-1.652;2023-05-07T23:39:37;102023.13;;;14.11;72.16
39949;BME280;29070;48.102;-1.652;2023-05-07T23:44:38;102010.16;;;14.09;71.95
39949;BME280;29070;48.102;-1.652;2023-05-07T23:49:38;102006.84;;;14.07;71.97
39949;BME280;29070;48.102;-1.652;2023-05-07T23:54:38;102011.75;;;14.10;71.94
39949;BME280;29070;48.102;-1.652;2023-05-07T23:59:39;102005.75;;;14.17;72.30
